sensor_id;sensor_type;location;lat;lon;timestamp;P1;durP1;ratioP1;P2;durP2;ratioP2
679;SDS011;322;48.846;9.230;2023-03-23T00:00:51;3.40;;;2.97;;
679;SDS011;322;48.846;9.230;2023-03-23T00:03:19;4.83;;;3.63;;
679;SDS011;322;48.846;9.230;2023-03-23T00:05:46;4.20;;;3.80;;
679;SDS011;322;48.846;9.230;2023-03-23T00:08:15;3.50;;;2.50;;
679;SDS011;322;48.846;9.230;2023-03-23T00:10:44;5.43;;;2.80;;
679;SDS011;322;48.846;9.230;2023-03-23T00:13:13;2.93;;;2.63;;
679;SDS011;322;48.846;9.230;2023-03-23T00:15:44;3.60;;;2.43;;
679;SDS011;322;48.846;9.230;2023-03-23T00:18:13;3.10;;;2.30;;
679;SDS011;322;48.846;9.230;2023-03-23T00:20:46;2.93;;;2.13;;
679;SDS011;322;48.846;9.230;2023-03-23T00:23:14;2.93;;;2.50;;
679;SDS011;322;48.846;9.230;2023-03-23T00:25:45;3.77;;;2.50;;
679;SDS011;322;48.846;9.230;2023-03-23T00:28:13;5.20;;;3.07;;
679;SDS011;322;48.846;9.230;2023-03-23T00:30:40;5.00;;;3.00;;
679;SDS011;322;48.846;9.230;2023-03-23T00:33:10;3.93;;;2.73;;
679;SDS011;322;48.846;9.230;2023-03-23T00:35:39;2.87;;;2.40;;
679;SDS011;322;48.846;9.230;2023-03-23T00:38:06;5.30;;;2.50;;
679;SDS011;322;48.846;9.230;2023-03-23T00:40:34;4.43;;;2.20;;
679;SDS011;322;48.846;9.230;2023-03-23T00:43:03;3.83;;;2.30;;
679;SDS011;322;48.846;9.230;2023-03-23T00:45:30;2.30;;;2.10;;
679;SDS011;322;48.846;9.230;2023-03-23T00:47:59;2.83;;;2.03;;
679;SDS011;322;48.846;9.230;2023-03-23T00:50:27;3.23;;;2.40;;
679;SDS011;322;48.846;9.230;2023-03-23T00:52:54;4.23;;;1.97;;
679;SDS011;322;48.846;9.230;2023-03-23T00:55:22;3.20;;;1.97;;
679;SDS011;322;48.846;9.230;2023-03-23T00:57:49;3.33;;;2.13;;
679;SDS011;322;48.846;9.230;2023-03-23T01:00:18;3.13;;;2.10;;
679;SDS011;322;48.846;9.230;2023-03-23T01:02:45;2.60;;;2.27;;
679;SDS011;322;48.846;9.230;2023-03-23T01:05:12;2.70;;;2.37;;
679;SDS011;322;48.846;9.230;2023-03-23T01:07:39;2.93;;;2.07;;
679;SDS011;322;48.846;9.230;2023-03-23T01:10:07;3.47;;;2.23;;
679;SDS011;322;48.846;9.230;2023-03-23T01:12:34;3.03;;;2.70;;
679;SDS011;322;48.846;9.230;2023-03-23T01:15:01;4.03;;;2.47;;
679;SDS011;322;48.846;9.230;2023-03-23T01:17:29;3.97;;;2.10;;
679;SDS011;322;48.846;9.230;2023-03-23T01:19:56;4.20;;;2.63;;
679;SDS011;322;48.846;9.230;2023-03-23T01:22:23;5.30;;;2.80;;
679;SDS011;322;48.846;9.230;2023-03-23T01:24:50;7.70;;;2.80;;
679;SDS011;322;48.846;9.230;2023-03-23T01:27:17;4.43;;;2.30;;
679;SDS011;322;48.846;9.230;2023-03-23T01:29:44;2.60;;;2.13;;
679;SDS011;322;48.846;9.230;2023-03-23T01:32:11;2.50;;;2.10;;
679;SDS011;322;48.846;9.230;2023-03-23T01:34:39;6.90;;;2.87;;
679;SDS011;322;48.846;9.230;2023-03-23T01:37:05;3.03;;;2.27;;
679;SDS011;322;48.846;9.230;2023-03-23T01:39:32;2.10;;;1.80;;
679;SDS011;322;48.846;9.230;2023-03-23T01:42:01;6.27;;;3.30;;
679;SDS011;322;48.846;9.230;2023-03-23T01:47:31;3.33;;;2.97;;
679;SDS011;322;48.846;9.230;2023-03-23T01:50:00;4.10;;;2.97;;
679;SDS011;322;48.846;9.230;2023-03-23T01:52:27;2.47;;;2.20;;
679;SDS011;322;48.846;9.230;2023-03-23T01:54:55;3.23;;;2.90;;
679;SDS011;322;48.846;9.230;2023-03-23T01:57:23;3.20;;;2.60;;
679;SDS011;322;48.846;9.230;2023-03-23T01:59:53;3.80;;;2.87;;
679;SDS011;322;48.846;9.230;2023-03-23T02:02:23;5.63;;;2.93;;
679;SDS011;322;48.846;9.230;2023-03-23T02:04:51;4.50;;;2.40;;
679;SDS011;322;48.846;9.230;2023-03-23T02:07:24;3.43;;;2.80;;
679;SDS011;322;48.846;9.230;2023-03-23T02:09:51;3.07;;;2.73;;
679;SDS011;322;48.846;9.230;2023-03-23T02:12:18;4.43;;;3.60;;
679;SDS011;322;48.846;9.230;2023-03-23T02:14:45;4.30;;;3.37;;
679;SDS011;322;48.846;9.230;2023-03-23T02:17:14;4.40;;;2.87;;
679;SDS011;322;48.846;9.230;2023-03-23T02:20:00;3.37;;;2.40;;
679;SDS011;322;48.846;9.230;2023-03-23T02:22:51;3.80;;;3.10;;
679;SDS011;322;48.846;9.230;2023-03-23T02:25:34;4.30;;;2.93;;
679;SDS011;322;48.846;9.230;2023-03-23T02:31:17;4.20;;;2.57;;
679;SDS011;322;48.846;9.230;2023-03-23T02:33:55;5.30;;;2.90;;
679;SDS011;322;48.846;9.230;2023-03-23T02:36:26;3.77;;;2.60;;
679;SDS011;322;48.846;9.230;2023-03-23T02:39:01;3.70;;;3.00;;
679;SDS011;322;48.846;9.230;2023-03-23T02:41:30;4.57;;;3.13;;
679;SDS011;322;48.846;9.230;2023-03-23T02:44:00;4.80;;;3.60;;
679;SDS011;322;48.846;9.230;2023-03-23T02:46:29;3.53;;;3.20;;
679;SDS011;322;48.846;9.230;2023-03-23T02:48:59;3.80;;;2.80;;
679;SDS011;322;48.846;9.230;2023-03-23T02:51:27;3.93;;;2.60;;
679;SDS011;322;48.846;9.230;2023-03-23T02:53:55;3.50;;;3.00;;
679;SDS011;322;48.846;9.230;2023-03-23T02:56:23;3.00;;;2.70;;
679;SDS011;322;48.846;9.230;2023-03-23T02:58:52;3.10;;;2.80;;
679;SDS011;322;48.846;9.230;2023-03-23T03:04:16;3.73;;;3.40;;
679;SDS011;322;48.846;9.230;2023-03-23T03:06:46;3.00;;;2.40;;
679;SDS011;322;48.846;9.230;2023-03-23T03:09:24;3.10;;;2.23;;
679;SDS011;322;48.846;9.230;2023-03-23T03:11:56;4.30;;;2.70;;
679;SDS011;322;48.846;9.230;2023-03-23T03:14:31;2.53;;;2.33;;
679;SDS011;322;48.846;9.230;2023-03-23T03:17:03;3.93;;;3.30;;
679;SDS011;322;48.846;9.230;2023-03-23T03:19:37;4.30;;;3.10;;
679;SDS011;322;48.846;9.230;2023-03-23T03:22:06;4.17;;;2.83;;
679;SDS011;322;48.846;9.230;2023-03-23T03:24:34;3.10;;;2.47;;
679;SDS011;322;48.846;9.230;2023-03-23T03:27:03;3.60;;;2.80;;
679;SDS011;322;48.846;9.230;2023-03-23T03:29:37;4.10;;;3.20;;
679;SDS011;322;48.846;9.230;2023-03-23T03:32:08;5.03;;;3.47;;
679;SDS011;322;48.846;9.230;2023-03-23T03:34:40;4.80;;;3.40;;
679;SDS011;322;48.846;9.230;2023-03-23T03:37:07;5.03;;;3.73;;
679;SDS011;322;48.846;9.230;2023-03-23T03:39:37;4.97;;;3.20;;
679;SDS011;322;48.846;9.230;2023-03-23T03:42:04;4.63;;;3.60;;
679;SDS011;322;48.846;9.230;2023-03-23T03:44:32;5.80;;;3.80;;
679;SDS011;322;48.846;9.230;2023-03-23T03:46:59;4.73;;;3.40;;
679;SDS011;322;48.846;9.230;2023-03-23T03:49:26;5.70;;;4.10;;
679;SDS011;322;48.846;9.230;2023-03-23T03:51:54;4.10;;;3.60;;
679;SDS011;322;48.846;9.230;2023-03-23T03:54:21;5.90;;;4.23;;
679;SDS011;322;48.846;9.230;2023-03-23T03:56:48;3.43;;;3.13;;
679;SDS011;322;48.846;9.230;2023-03-23T03:59:16;4.20;;;3.60;;
679;SDS011;322;48.846;9.230;2023-03-23T04:01:43;3.70;;;2.87;;
679;SDS011;322;48.846;9.230;2023-03-23T04:04:10;4.40;;;4.00;;
679;SDS011;322;48.846;9.230;2023-03-23T04:06:37;3.43;;;3.13;;
679;SDS011;322;48.846;9.230;2023-03-23T04:09:05;4.47;;;4.07;;
679;SDS011;322;48.846;9.230;2023-03-23T04:11:32;5.30;;;3.03;;
679;SDS011;322;48.846;9.230;2023-03-23T04:13:59;5.03;;;3.43;;
679;SDS011;322;48.846;9.230;2023-03-23T04:16:27;3.20;;;2.90;;
679;SDS011;322;48.846;9.230;2023-03-23T04:18:54;9.13;;;3.27;;
679;SDS011;322;48.846;9.230;2023-03-23T04:21:22;2.93;;;2.40;;
679;SDS011;322;48.846;9.230;2023-03-23T04:23:48;4.00;;;2.90;;
679;SDS011;322;48.846;9.230;2023-03-23T04:26:17;4.70;;;3.20;;
679;SDS011;322;48.846;9.230;2023-03-23T04:28:43;3.97;;;2.93;;
679;SDS011;322;48.846;9.230;2023-03-23T04:31:10;4.90;;;2.70;;
679;SDS011;322;48.846;9.230;2023-03-23T04:33:38;4.80;;;3.07;;
679;SDS011;322;48.846;9.230;2023-03-23T04:36:06;4.50;;;3.17;;
679;SDS011;322;48.846;9.230;2023-03-23T04:38:33;3.33;;;2.97;;
679;SDS011;322;48.846;9.230;2023-03-23T04:41:00;3.53;;;3.10;;
679;SDS011;322;48.846;9.230;2023-03-23T04:43:28;2.77;;;2.47;;
679;SDS011;322;48.846;9.230;2023-03-23T04:45:55;3.40;;;2.70;;
679;SDS011;322;48.846;9.230;2023-03-23T04:48:23;3.60;;;2.57;;
679;SDS011;322;48.846;9.230;2023-03-23T04:50:51;3.77;;;2.73;;
679;SDS011;322;48.846;9.230;2023-03-23T04:53:18;3.10;;;2.90;;
679;SDS011;322;48.846;9.230;2023-03-23T04:55:46;2.90;;;2.70;;
679;SDS011;322;48.846;9.230;2023-03-23T04:58:14;2.70;;;2.30;;
679;SDS011;322;48.846;9.230;2023-03-23T05:00:43;5.77;;;3.07;;
679;SDS011;322;48.846;9.230;2023-03-23T05:03:14;5.00;;;2.40;;
679;SDS011;322;48.846;9.230;2023-03-23T05:05:41;4.60;;;2.93;;
679;SDS011;322;48.846;9.230;2023-03-23T05:08:11;4.80;;;2.60;;
679;SDS011;322;48.846;9.230;2023-03-23T05:10:38;3.90;;;2.53;;
679;SDS011;322;48.846;9.230;2023-03-23T05:13:05;3.07;;;2.77;;
679;SDS011;322;48.846;9.230;2023-03-23T05:15:32;5.30;;;2.67;;
679;SDS011;322;48.846;9.230;2023-03-23T05:18:00;4.67;;;2.57;;
679;SDS011;322;48.846;9.230;2023-03-23T05:20:27;3.87;;;2.90;;
679;SDS011;322;48.846;9.230;2023-03-23T05:22:55;3.30;;;2.60;;
679;SDS011;322;48.846;9.230;2023-03-23T05:25:22;4.80;;;2.30;;
679;SDS011;322;48.846;9.230;2023-03-23T05:27:49;4.63;;;2.60;;
679;SDS011;322;48.846;9.230;2023-03-23T05:30:18;3.97;;;3.57;;
679;SDS011;322;48.846;9.230;2023-03-23T05:32:46;3.37;;;2.63;;
679;SDS011;322;48.846;9.230;2023-03-23T05:35:17;4.07;;;3.40;;
679;SDS011;322;48.846;9.230;2023-03-23T05:37:48;3.40;;;2.90;;
679;SDS011;322;48.846;9.230;2023-03-23T05:40:14;6.93;;;3.67;;
679;SDS011;322;48.846;9.230;2023-03-23T05:42:41;3.90;;;2.93;;
679;SDS011;322;48.846;9.230;2023-03-23T05:45:10;3.80;;;3.20;;
679;SDS011;322;48.846;9.230;2023-03-23T05:47:38;5.37;;;3.40;;
679;SDS011;322;48.846;9.230;2023-03-23T05:50:05;3.17;;;2.87;;
679;SDS011;322;48.846;9.230;2023-03-23T05:52:35;3.33;;;2.47;;
679;SDS011;322;48.846;9.230;2023-03-23T05:55:04;4.87;;;3.03;;
679;SDS011;322;48.846;9.230;2023-03-23T05:57:33;3.60;;;2.87;;
679;SDS011;322;48.846;9.230;2023-03-23T06:00:00;5.63;;;3.50;;
679;SDS011;322;48.846;9.230;2023-03-23T06:02:36;5.27;;;3.10;;
679;SDS011;322;48.846;9.230;2023-03-23T06:05:03;7.13;;;3.13;;
679;SDS011;322;48.846;9.230;2023-03-23T06:07:31;6.20;;;3.03;;
679;SDS011;322;48.846;9.230;2023-03-23T06:10:00;5.17;;;3.07;;
679;SDS011;322;48.846;9.230;2023-03-23T06:12:26;3.43;;;2.80;;
679;SDS011;322;48.846;9.230;2023-03-23T06:14:53;3.47;;;2.47;;
679;SDS011;322;48.846;9.230;2023-03-23T06:17:20;2.67;;;2.30;;
679;SDS011;322;48.846;9.230;2023-03-23T06:19:47;3.53;;;2.27;;
679;SDS011;322;48.846;9.230;2023-03-23T06:22:15;5.43;;;2.63;;
679;SDS011;322;48.846;9.230;2023-03-23T06:24:42;3.30;;;2.40;;
679;SDS011;322;48.846;9.230;2023-03-23T06:27:11;2.17;;;1.90;;
679;SDS011;322;48.846;9.230;2023-03-23T06:29:38;4.10;;;2.30;;
679;SDS011;322;48.846;9.230;2023-03-23T06:32:05;2.30;;;1.90;;
679;SDS011;322;48.846;9.230;2023-03-23T06:34:32;2.83;;;2.20;;
679;SDS011;322;48.846;9.230;2023-03-23T06:36:59;2.67;;;1.90;;
679;SDS011;322;48.846;9.230;2023-03-23T06:39:27;4.40;;;2.40;;
679;SDS011;322;48.846;9.230;2023-03-23T06:41:54;2.20;;;1.77;;
679;SDS011;322;48.846;9.230;2023-03-23T06:44:25;2.80;;;1.70;;
679;SDS011;322;48.846;9.230;2023-03-23T06:46:52;2.70;;;1.90;;
679;SDS011;322;48.846;9.230;2023-03-23T06:49:19;4.00;;;1.97;;
679;SDS011;322;48.846;9.230;2023-03-23T06:51:47;2.43;;;2.20;;
679;SDS011;322;48.846;9.230;2023-03-23T06:54:13;2.40;;;1.70;;
679;SDS011;322;48.846;9.230;2023-03-23T06:56:41;3.60;;;2.00;;
679;SDS011;322;48.846;9.230;2023-03-23T06:59:07;2.67;;;1.87;;
679;SDS011;322;48.846;9.230;2023-03-23T07:01:36;3.20;;;1.90;;
679;SDS011;322;48.846;9.230;2023-03-23T07:04:03;4.10;;;2.43;;
679;SDS011;322;48.846;9.230;2023-03-23T07:06:30;2.80;;;1.90;;
679;SDS011;322;48.846;9.230;2023-03-23T07:08:57;2.53;;;1.27;;
679;SDS011;322;48.846;9.230;2023-03-23T07:11:24;2.20;;;1.90;;
679;SDS011;322;48.846;9.230;2023-03-23T07:13:51;3.20;;;1.70;;
679;SDS011;322;48.846;9.230;2023-03-23T07:16:18;3.90;;;2.20;;
679;SDS011;322;48.846;9.230;2023-03-23T07:18:47;2.47;;;2.00;;
679;SDS011;322;48.846;9.230;2023-03-23T07:21:14;3.00;;;1.80;;
679;SDS011;322;48.846;9.230;2023-03-23T07:23:41;3.30;;;1.63;;
679;SDS011;322;48.846;9.230;2023-03-23T07:26:08;3.53;;;1.87;;
679;SDS011;322;48.846;9.230;2023-03-23T07:28:34;1.60;;;1.43;;
679;SDS011;322;48.846;9.230;2023-03-23T07:31:01;3.00;;;1.93;;
679;SDS011;322;48.846;9.230;2023-03-23T07:33:28;1.80;;;1.70;;
679;SDS011;322;48.846;9.230;2023-03-23T07:36:00;3.47;;;2.10;;
679;SDS011;322;48.846;9.230;2023-03-23T07:38:27;2.87;;;2.20;;
679;SDS011;322;48.846;9.230;2023-03-23T07:40:54;3.53;;;2.20;;
679;SDS011;322;48.846;9.230;2023-03-23T07:43:22;2.93;;;1.50;;
679;SDS011;322;48.846;9.230;2023-03-23T07:45:49;3.33;;;1.93;;
679;SDS011;322;48.846;9.230;2023-03-23T07:48:16;2.37;;;2.17;;
679;SDS011;322;48.846;9.230;2023-03-23T07:50:43;2.30;;;1.47;;
679;SDS011;322;48.846;9.230;2023-03-23T07:53:12;6.80;;;2.13;;
679;SDS011;322;48.846;9.230;2023-03-23T07:55:39;2.07;;;1.80;;
679;SDS011;322;48.846;9.230;2023-03-23T07:58:06;5.60;;;2.13;;
679;SDS011;322;48.846;9.230;2023-03-23T08:00:33;1.70;;;1.60;;
679;SDS011;322;48.846;9.230;2023-03-23T08:03:00;2.73;;;1.97;;
679;SDS011;322;48.846;9.230;2023-03-23T08:05:27;3.47;;;1.87;;
679;SDS011;322;48.846;9.230;2023-03-23T08:07:54;1.80;;;1.70;;
679;SDS011;322;48.846;9.230;2023-03-23T08:10:23;3.47;;;1.97;;
679;SDS011;322;48.846;9.230;2023-03-23T08:12:52;3.70;;;1.90;;
679;SDS011;322;48.846;9.230;2023-03-23T08:15:20;2.37;;;1.50;;
679;SDS011;322;48.846;9.230;2023-03-23T08:17:47;4.27;;;2.00;;
679;SDS011;322;48.846;9.230;2023-03-23T08:20:15;3.90;;;1.90;;
679;SDS011;322;48.846;9.230;2023-03-23T08:22:49;2.70;;;1.70;;
679;SDS011;322;48.846;9.230;2023-03-23T08:25:18;3.83;;;2.07;;
679;SDS011;322;48.846;9.230;2023-03-23T08:27:47;1.70;;;1.60;;
679;SDS011;322;48.846;9.230;2023-03-23T08:30:15;2.40;;;1.57;;
679;SDS011;322;48.846;9.230;2023-03-23T08:32:44;2.43;;;2.00;;
679;SDS011;322;48.846;9.230;2023-03-23T08:35:12;4.43;;;2.40;;
679;SDS011;322;48.846;9.230;2023-03-23T08:37:40;2.83;;;1.70;;
679;SDS011;322;48.846;9.230;2023-03-23T08:40:07;2.33;;;1.73;;
679;SDS011;322;48.846;9.230;2023-03-23T08:42:36;2.37;;;1.80;;
679;SDS011;322;48.846;9.230;2023-03-23T08:45:06;2.07;;;1.87;;
679;SDS011;322;48.846;9.230;2023-03-23T08:47:34;2.70;;;1.83;;
679;SDS011;322;48.846;9.230;2023-03-23T08:50:01;5.03;;;2.30;;
679;SDS011;322;48.846;9.230;2023-03-23T08:52:28;1.90;;;1.80;;
679;SDS011;322;48.846;9.230;2023-03-23T08:54:55;3.07;;;2.10;;
679;SDS011;322;48.846;9.230;2023-03-23T08:57:22;2.83;;;2.27;;
679;SDS011;322;48.846;9.230;2023-03-23T08:59:50;1.70;;;1.57;;
679;SDS011;322;48.846;9.230;2023-03-23T09:02:20;2.57;;;2.00;;
679;SDS011;322;48.846;9.230;2023-03-23T09:04:48;5.17;;;1.90;;
679;SDS011;322;48.846;9.230;2023-03-23T09:07:15;2.60;;;2.40;;
679;SDS011;322;48.846;9.230;2023-03-23T09:09:42;5.93;;;3.40;;
679;SDS011;322;48.846;9.230;2023-03-23T09:12:10;3.60;;;2.10;;
679;SDS011;322;48.846;9.230;2023-03-23T09:14:37;3.20;;;2.30;;
679;SDS011;322;48.846;9.230;2023-03-23T09:17:04;3.43;;;2.23;;
679;SDS011;322;48.846;9.230;2023-03-23T09:19:33;3.27;;;2.20;;
679;SDS011;322;48.846;9.230;2023-03-23T09:22:01;3.10;;;2.47;;
679;SDS011;322;48.846;9.230;2023-03-23T09:24:28;2.90;;;1.90;;
679;SDS011;322;48.846;9.230;2023-03-23T09:26:55;2.30;;;2.10;;
679;SDS011;322;48.846;9.230;2023-03-23T09:29:23;7.80;;;2.80;;
679;SDS011;322;48.846;9.230;2023-03-23T09:31:51;6.57;;;2.67;;
679;SDS011;322;48.846;9.230;2023-03-23T09:34:18;9.30;;;2.97;;
679;SDS011;322;48.846;9.230;2023-03-23T09:36:47;2.53;;;1.90;;
679;SDS011;322;48.846;9.230;2023-03-23T09:39:14;3.57;;;1.90;;
679;SDS011;322;48.846;9.230;2023-03-23T09:41:47;3.33;;;2.13;;
679;SDS011;322;48.846;9.230;2023-03-23T09:44:26;3.00;;;2.10;;
679;SDS011;322;48.846;9.230;2023-03-23T09:47:01;3.60;;;1.90;;
679;SDS011;322;48.846;9.230;2023-03-23T09:49:33;2.10;;;1.73;;
679;SDS011;322;48.846;9.230;2023-03-23T09:52:09;2.33;;;1.70;;
679;SDS011;322;48.846;9.230;2023-03-23T09:54:39;2.87;;;2.17;;
679;SDS011;322;48.846;9.230;2023-03-23T09:57:11;1.87;;;1.60;;
679;SDS011;322;48.846;9.230;2023-03-23T09:59:42;1.90;;;1.70;;
679;SDS011;322;48.846;9.230;2023-03-23T10:02:16;1.63;;;1.53;;
679;SDS011;322;48.846;9.230;2023-03-23T10:04:46;2.00;;;1.80;;
679;SDS011;322;48.846;9.230;2023-03-23T10:07:16;3.80;;;2.00;;
679;SDS011;322;48.846;9.230;2023-03-23T10:09:45;2.33;;;2.07;;
679;SDS011;322;48.846;9.230;2023-03-23T10:12:18;3.43;;;1.90;;
679;SDS011;322;48.846;9.230;2023-03-23T10:14:54;4.43;;;1.90;;
679;SDS011;322;48.846;9.230;2023-03-23T10:17:29;2.07;;;1.60;;
679;SDS011;322;48.846;9.230;2023-03-23T10:20:03;8.30;;;1.60;;
679;SDS011;322;48.846;9.230;2023-03-23T10:22:46;2.00;;;1.37;;
679;SDS011;322;48.846;9.230;2023-03-23T10:25:19;2.03;;;1.43;;
679;SDS011;322;48.846;9.230;2023-03-23T10:27:49;6.13;;;1.50;;
679;SDS011;322;48.846;9.230;2023-03-23T10:30:24;2.27;;;1.60;;
679;SDS011;322;48.846;9.230;2023-03-23T10:32:54;2.87;;;1.60;;
679;SDS011;322;48.846;9.230;2023-03-23T10:38:13;2.20;;;1.67;;
679;SDS011;322;48.846;9.230;2023-03-23T10:40:45;1.90;;;1.77;;
679;SDS011;322;48.846;9.230;2023-03-23T10:43:15;2.67;;;1.80;;
679;SDS011;322;48.846;9.230;2023-03-23T10:45:43;6.70;;;2.10;;
679;SDS011;322;48.846;9.230;2023-03-23T10:48:14;1.83;;;1.70;;
679;SDS011;322;48.846;9.230;2023-03-23T10:50:52;3.57;;;2.03;;
679;SDS011;322;48.846;9.230;2023-03-23T10:53:26;2.07;;;1.87;;
679;SDS011;322;48.846;9.230;2023-03-23T10:55:57;3.03;;;2.07;;
679;SDS011;322;48.846;9.230;2023-03-23T10:58:25;2.83;;;1.77;;
679;SDS011;322;48.846;9.230;2023-03-23T11:00:55;4.80;;;1.80;;
679;SDS011;322;48.846;9.230;2023-03-23T11:03:24;3.67;;;1.60;;
679;SDS011;322;48.846;9.230;2023-03-23T11:05:57;4.67;;;1.40;;
679;SDS011;322;48.846;9.230;2023-03-23T11:08:30;3.23;;;1.60;;
679;SDS011;322;48.846;9.230;2023-03-23T11:11:07;3.23;;;1.60;;
679;SDS011;322;48.846;9.230;2023-03-23T11:13:38;2.23;;;1.53;;
679;SDS011;322;48.846;9.230;2023-03-23T11:16:08;7.03;;;2.43;;
679;SDS011;322;48.846;9.230;2023-03-23T11:18:37;2.10;;;1.80;;
679;SDS011;322;48.846;9.230;2023-03-23T11:21:08;5.80;;;2.17;;
679;SDS011;322;48.846;9.230;2023-03-23T11:23:39;4.97;;;1.90;;
679;SDS011;322;48.846;9.230;2023-03-23T11:26:10;2.93;;;1.70;;
679;SDS011;322;48.846;9.230;2023-03-23T11:28:42;2.63;;;1.53;;
679;SDS011;322;48.846;9.230;2023-03-23T11:31:11;7.87;;;3.33;;
679;SDS011;322;48.846;9.230;2023-03-23T11:33:49;3.17;;;2.13;;
679;SDS011;322;48.846;9.230;2023-03-23T11:36:20;4.60;;;2.30;;
679;SDS011;322;48.846;9.230;2023-03-23T11:38:51;3.10;;;1.67;;
679;SDS011;322;48.846;9.230;2023-03-23T11:41:22;1.60;;;1.40;;
679;SDS011;322;48.846;9.230;2023-03-23T11:43:51;1.80;;;1.50;;
679;SDS011;322;48.846;9.230;2023-03-23T11:46:21;1.90;;;1.60;;
679;SDS011;322;48.846;9.230;2023-03-23T11:48:58;4.50;;;1.63;;
679;SDS011;322;48.846;9.230;2023-03-23T11:51:30;1.83;;;1.73;;
679;SDS011;322;48.846;9.230;2023-03-23T11:54:09;3.90;;;1.80;;
679;SDS011;322;48.846;9.230;2023-03-23T11:56:42;1.77;;;1.67;;
679;SDS011;322;48.846;9.230;2023-03-23T11:59:10;2.20;;;1.87;;
679;SDS011;322;48.846;9.230;2023-03-23T12:01:43;3.93;;;2.70;;
679;SDS011;322;48.846;9.230;2023-03-23T12:04:25;5.10;;;1.80;;
679;SDS011;322;48.846;9.230;2023-03-23T12:07:01;2.70;;;1.80;;
679;SDS011;322;48.846;9.230;2023-03-23T12:09:56;2.30;;;2.00;;
679;SDS011;322;48.846;9.230;2023-03-23T12:12:31;3.73;;;2.07;;
679;SDS011;322;48.846;9.230;2023-03-23T12:15:07;2.00;;;1.83;;
679;SDS011;322;48.846;9.230;2023-03-23T12:17:45;2.03;;;1.80;;
679;SDS011;322;48.846;9.230;2023-03-23T12:20:20;2.00;;;1.60;;
679;SDS011;322;48.846;9.230;2023-03-23T12:22:57;3.13;;;1.83;;
679;SDS011;322;48.846;9.230;2023-03-23T12:25:51;1.73;;;1.60;;
679;SDS011;322;48.846;9.230;2023-03-23T12:28:33;1.73;;;1.57;;
679;SDS011;322;48.846;9.230;2023-03-23T12:31:11;2.27;;;2.07;;
679;SDS011;322;48.846;9.230;2023-03-23T12:33:45;3.43;;;2.03;;
679;SDS011;322;48.846;9.230;2023-03-23T12:36:24;2.20;;;1.67;;
679;SDS011;322;48.846;9.230;2023-03-23T12:39:04;2.00;;;1.80;;
679;SDS011;322;48.846;9.230;2023-03-23T12:41:51;3.27;;;2.30;;
679;SDS011;322;48.846;9.230;2023-03-23T12:44:23;2.20;;;2.00;;
679;SDS011;322;48.846;9.230;2023-03-23T12:47:07;3.83;;;1.87;;
679;SDS011;322;48.846;9.230;2023-03-23T12:49:46;3.40;;;1.60;;
679;SDS011;322;48.846;9.230;2023-03-23T12:52:20;3.20;;;1.90;;
679;SDS011;322;48.846;9.230;2023-03-23T12:54:51;2.77;;;2.00;;
679;SDS011;322;48.846;9.230;2023-03-23T12:57:26;2.00;;;1.53;;
679;SDS011;322;48.846;9.230;2023-03-23T12:59:58;3.23;;;2.20;;
679;SDS011;322;48.846;9.230;2023-03-23T13:02:37;2.40;;;2.20;;
679;SDS011;322;48.846;9.230;2023-03-23T13:05:11;2.30;;;2.10;;
679;SDS011;322;48.846;9.230;2023-03-23T13:07:52;2.77;;;2.10;;
679;SDS011;322;48.846;9.230;2023-03-23T13:10:22;3.73;;;2.10;;
679;SDS011;322;48.846;9.230;2023-03-23T13:12:55;3.50;;;2.30;;
679;SDS011;322;48.846;9.230;2023-03-23T13:15:25;4.03;;;2.07;;
679;SDS011;322;48.846;9.230;2023-03-23T13:18:02;4.43;;;2.20;;
679;SDS011;322;48.846;9.230;2023-03-23T13:20:37;2.50;;;2.20;;
679;SDS011;322;48.846;9.230;2023-03-23T13:23:13;2.20;;;1.90;;
679;SDS011;322;48.846;9.230;2023-03-23T13:25:45;3.50;;;1.57;;
679;SDS011;322;48.846;9.230;2023-03-23T13:28:17;2.30;;;2.10;;
679;SDS011;322;48.846;9.230;2023-03-23T13:30:57;2.73;;;2.20;;
679;SDS011;322;48.846;9.230;2023-03-23T13:33:28;2.60;;;2.40;;
679;SDS011;322;48.846;9.230;2023-03-23T13:36:01;2.77;;;2.50;;
679;SDS011;322;48.846;9.230;2023-03-23T13:38:32;3.70;;;2.47;;
679;SDS011;322;48.846;9.230;2023-03-23T13:41:05;3.50;;;2.30;;
679;SDS011;322;48.846;9.230;2023-03-23T13:43:36;2.10;;;1.90;;
679;SDS011;322;48.846;9.230;2023-03-23T13:46:08;2.93;;;2.03;;
679;SDS011;322;48.846;9.230;2023-03-23T13:48:42;4.53;;;2.00;;
679;SDS011;322;48.846;9.230;2023-03-23T13:51:31;2.47;;;2.27;;
679;SDS011;322;48.846;9.230;2023-03-23T13:54:05;4.70;;;2.60;;
679;SDS011;322;48.846;9.230;2023-03-23T13:56:41;4.03;;;2.27;;
679;SDS011;322;48.846;9.230;2023-03-23T13:59:15;5.07;;;1.90;;
679;SDS011;322;48.846;9.230;2023-03-23T14:01:54;3.40;;;2.10;;
679;SDS011;322;48.846;9.230;2023-03-23T14:04:22;2.50;;;2.27;;
679;SDS011;322;48.846;9.230;2023-03-23T14:07:07;4.33;;;2.57;;
679;SDS011;322;48.846;9.230;2023-03-23T14:09:37;4.73;;;2.13;;
679;SDS011;322;48.846;9.230;2023-03-23T14:12:13;4.67;;;2.87;;
679;SDS011;322;48.846;9.230;2023-03-23T14:14:45;2.33;;;2.13;;
679;SDS011;322;48.846;9.230;2023-03-23T14:17:15;2.47;;;2.27;;
679;SDS011;322;48.846;9.230;2023-03-23T14:19:46;3.10;;;2.00;;
679;SDS011;322;48.846;9.230;2023-03-23T14:22:17;5.33;;;2.73;;
679;SDS011;322;48.846;9.230;2023-03-23T14:24:44;3.73;;;2.60;;
679;SDS011;322;48.846;9.230;2023-03-23T14:27:13;4.43;;;2.70;;
679;SDS011;322;48.846;9.230;2023-03-23T14:29:42;4.10;;;2.47;;
679;SDS011;322;48.846;9.230;2023-03-23T14:32:13;4.17;;;2.40;;
679;SDS011;322;48.846;9.230;2023-03-23T14:34:42;2.60;;;2.40;;
679;SDS011;322;48.846;9.230;2023-03-23T14:37:11;4.77;;;2.43;;
679;SDS011;322;48.846;9.230;2023-03-23T14:39:39;3.50;;;2.93;;
679;SDS011;322;48.846;9.230;2023-03-23T14:42:06;2.40;;;1.93;;
679;SDS011;322;48.846;9.230;2023-03-23T14:44:39;2.20;;;2.00;;
679;SDS011;322;48.846;9.230;2023-03-23T14:47:10;3.43;;;2.40;;
679;SDS011;322;48.846;9.230;2023-03-23T14:49:44;4.90;;;2.60;;
679;SDS011;322;48.846;9.230;2023-03-23T14:52:13;2.87;;;2.43;;
679;SDS011;322;48.846;9.230;2023-03-23T14:54:41;2.13;;;1.93;;
679;SDS011;322;48.846;9.230;2023-03-23T14:57:10;3.67;;;2.50;;
679;SDS011;322;48.846;9.230;2023-03-23T14:59:39;3.17;;;1.80;;
679;SDS011;322;48.846;9.230;2023-03-23T15:02:09;2.40;;;2.20;;
679;SDS011;322;48.846;9.230;2023-03-23T15:04:39;3.00;;;1.93;;
679;SDS011;322;48.846;9.230;2023-03-23T15:07:08;2.40;;;2.00;;
679;SDS011;322;48.846;9.230;2023-03-23T15:09:37;3.60;;;2.13;;
679;SDS011;322;48.846;9.230;2023-03-23T15:12:06;3.30;;;2.13;;
679;SDS011;322;48.846;9.230;2023-03-23T15:14:48;3.60;;;2.40;;
679;SDS011;322;48.846;9.230;2023-03-23T15:17:18;4.00;;;2.63;;
679;SDS011;322;48.846;9.230;2023-03-23T15:19:47;2.97;;;1.57;;
679;SDS011;322;48.846;9.230;2023-03-23T15:22:18;2.50;;;2.20;;
679;SDS011;322;48.846;9.230;2023-03-23T15:24:49;1.87;;;1.67;;
679;SDS011;322;48.846;9.230;2023-03-23T15:27:23;4.23;;;2.30;;
679;SDS011;322;48.846;9.230;2023-03-23T15:29:53;2.73;;;1.70;;
679;SDS011;322;48.846;9.230;2023-03-23T15:32:23;4.83;;;2.40;;
679;SDS011;322;48.846;9.230;2023-03-23T15:34:53;2.20;;;2.00;;
679;SDS011;322;48.846;9.230;2023-03-23T15:37:21;2.27;;;2.07;;
679;SDS011;322;48.846;9.230;2023-03-23T15:39:52;2.50;;;2.30;;
679;SDS011;322;48.846;9.230;2023-03-23T15:42:20;2.67;;;2.30;;
679;SDS011;322;48.846;9.230;2023-03-23T15:44:54;3.30;;;3.00;;
679;SDS011;322;48.846;9.230;2023-03-23T15:47:32;3.80;;;2.20;;
679;SDS011;322;48.846;9.230;2023-03-23T15:50:03;3.43;;;2.20;;
679;SDS011;322;48.846;9.230;2023-03-23T15:52:37;1.97;;;1.77;;
679;SDS011;322;48.846;9.230;2023-03-23T15:55:15;3.93;;;2.30;;
679;SDS011;322;48.846;9.230;2023-03-23T15:57:45;4.30;;;2.20;;
679;SDS011;322;48.846;9.230;2023-03-23T16:00:14;4.10;;;2.30;;
679;SDS011;322;48.846;9.230;2023-03-23T16:02:41;2.23;;;1.90;;
679;SDS011;322;48.846;9.230;2023-03-23T16:05:10;3.10;;;2.27;;
679;SDS011;322;48.846;9.230;2023-03-23T16:07:38;4.00;;;2.13;;
679;SDS011;322;48.846;9.230;2023-03-23T16:10:05;2.80;;;2.40;;
679;SDS011;322;48.846;9.230;2023-03-23T16:12:39;2.03;;;1.83;;
679;SDS011;322;48.846;9.230;2023-03-23T16:15:06;3.73;;;2.17;;